»·PEaware :: N7375Q L88-L90

N7375Q :: L88-L90

FLIGHT INFORMATION

Flight Status: Arrived
Operator: Privately registered:
United States
More flights under this callsign
Pilot: Ion I. (24133)
Aircraft: SOCATA TBM-900
(TBM9)
More flights by this aircraft type
Origin: L88 New Cuyama
United States
Destination: L90 Ocotillo
United States
More flights between these airports :: More routes between these airports
Route: DIRECT
File this flight plan on PilotEdge
Remarks:
Altitude:
(Current/Filed)
17,500ft
Speed:
(Current/Filed)
250kts
Departed: 02-Aug-20 12:43 PM
Arrived: 02-Aug-20 01:34 PM
Distance/Time
Traveled:
207nm/0:51
Distance/Time
To Go:
Arrived

Flight Plot

Page will automatically refresh every two minutes.


Map Options




Map Legend


Flown Route
Filed Route
Departure Airport
Arrival Airport
Navaid (VOR, NDB)
Fix

Horizontal Profiles

Position Reports

Time Latitude Longitude Heading Altitude Ground
Speed
02-Aug-20 12:40 34.942456 -119.690665 290 2162ft 0kts
02-Aug-20 12:41 34.942378 -119.691378 189 2157ft 0kts
02-Aug-20 12:42 34.939444 -119.684309 115 2188ft 106kts
02-Aug-20 12:43 34.920470 -119.654511 140 3970ft 123kts
02-Aug-20 12:44 34.894471 -119.622292 130 5903ft 147kts
02-Aug-20 12:45 34.866994 -119.583952 131 7927ft 153kts
02-Aug-20 12:46 34.839063 -119.545099 132 9903ft 152kts
02-Aug-20 12:47 34.811353 -119.506617 134 11918ft 158kts
02-Aug-20 12:48 34.780383 -119.463720 134 14048ft 180kts
02-Aug-20 12:49 34.745458 -119.415339 133 16152ft 200kts
02-Aug-20 12:50 34.706995 -119.362127 132 17531ft 234kts
02-Aug-20 12:51 34.667445 -119.307470 132 17511ft 272kts
02-Aug-20 12:52 34.615761 -119.236220 133 17500ft 286kts
02-Aug-20 12:53 34.562700 -119.163223 133 17500ft 288kts
02-Aug-20 12:54 34.509496 -119.090195 132 17498ft 288kts
02-Aug-20 12:55 34.456452 -119.017531 132 17499ft 288kts
02-Aug-20 12:56 34.403185 -118.944730 132 17508ft 287kts
02-Aug-20 12:57 34.352891 -118.870174 111 17501ft 289kts
02-Aug-20 12:58 34.324137 -118.778890 111 17527ft 289kts
02-Aug-20 12:59 34.295300 -118.688382 111 17526ft 289kts
02-Aug-20 13:00 34.266229 -118.597470 111 17526ft 288kts
02-Aug-20 13:01 34.237186 -118.506912 111 17526ft 288kts
02-Aug-20 13:02 34.208010 -118.416217 111 17523ft 287kts
02-Aug-20 13:03 34.179124 -118.326682 112 17519ft 287kts
02-Aug-20 13:04 34.150829 -118.239260 111 17516ft 287kts
02-Aug-20 13:05 34.121564 -118.149057 111 17516ft 286kts
02-Aug-20 13:06 34.092299 -118.059148 111 17508ft 287kts
02-Aug-20 13:07 34.063014 -117.969435 112 17496ft 287kts
02-Aug-20 13:08 34.033619 -117.879635 112 17484ft 287kts
02-Aug-20 13:09 34.004272 -117.790258 112 17481ft 287kts
02-Aug-20 13:10 33.974770 -117.700683 112 17480ft 287kts
02-Aug-20 13:11 33.945182 -117.611052 112 17480ft 287kts
02-Aug-20 13:12 33.914085 -117.522087 123 17462ft 287kts
02-Aug-20 13:13 33.870480 -117.441479 123 17481ft 286kts
02-Aug-20 13:14 33.827063 -117.361367 123 17481ft 286kts
02-Aug-20 13:15 33.783223 -117.280630 124 17253ft 294kts
02-Aug-20 13:16 33.737074 -117.195837 124 16272ft 308kts
02-Aug-20 13:17 33.689985 -117.109520 124 15265ft 308kts
02-Aug-20 13:18 33.642832 -117.023313 124 14266ft 310kts
02-Aug-20 13:19 33.595337 -116.936679 125 13265ft 311kts
02-Aug-20 13:20 33.547861 -116.850306 125 12263ft 309kts
02-Aug-20 13:21 33.500564 -116.764466 125 11261ft 308kts
02-Aug-20 13:22 33.454302 -116.678456 118 10255ft 303kts
02-Aug-20 13:23 33.414096 -116.589337 119 8844ft 304kts
02-Aug-20 13:24 33.373846 -116.501304 119 7345ft 299kts
02-Aug-20 13:25 33.334286 -116.415352 119 5686ft 278kts
02-Aug-20 13:26 33.302441 -116.345722 119 3514ft 215kts
02-Aug-20 13:27 33.272922 -116.279971 119 1943ft 253kts
02-Aug-20 13:28 33.244415 -116.215138 132 1445ft 159kts
02-Aug-20 13:29 33.220229 -116.188394 152 1316ft 98kts
02-Aug-20 13:30 33.198241 -116.171548 148 1054ft 90kts
02-Aug-20 13:31 33.177495 -116.154516 149 672ft 95kts
02-Aug-20 13:32 33.156439 -116.138079 149 206ft 84kts
02-Aug-20 13:33 33.145547 -116.129272 144 163ft 0kts
02-Aug-20 13:34 33.145547 -116.129272 144 163ft 0kts

Navigation Log

Ident Type
Flight plan parsing failed, navigation log unavailable